sensor_id;sensor_type;location;lat;lon;timestamp;P1;durP1;ratioP1;P2;durP2;ratioP2
11675;SDS011;5894;42.768;23.404;2022-12-10T00:01:40;52.17;;;29.87;;
11675;SDS011;5894;42.768;23.404;2022-12-10T00:04:08;47.20;;;24.57;;
11675;SDS011;5894;42.768;23.404;2022-12-10T00:06:36;44.80;;;23.00;;
11675;SDS011;5894;42.768;23.404;2022-12-10T00:09:05;40.87;;;22.60;;
11675;SDS011;5894;42.768;23.404;2022-12-10T00:11:33;45.37;;;24.30;;
11675;SDS011;5894;42.768;23.404;2022-12-10T00:14:01;40.93;;;22.23;;
11675;SDS011;5894;42.768;23.404;2022-12-10T00:16:28;36.70;;;19.60;;
11675;SDS011;5894;42.768;23.404;2022-12-10T00:18:58;41.93;;;21.17;;
11675;SDS011;5894;42.768;23.404;2022-12-10T00:21:25;40.30;;;21.17;;
11675;SDS011;5894;42.768;23.404;2022-12-10T00:23:54;43.73;;;25.87;;
11675;SDS011;5894;42.768;23.404;2022-12-10T00:26:22;42.60;;;23.83;;
11675;SDS011;5894;42.768;23.404;2022-12-10T00:28:51;31.00;;;17.57;;
11675;SDS011;5894;42.768;23.404;2022-12-10T00:31:21;26.43;;;14.97;;
11675;SDS011;5894;42.768;23.404;2022-12-10T00:33:50;26.53;;;15.13;;
11675;SDS011;5894;42.768;23.404;2022-12-10T00:36:17;25.67;;;14.40;;
11675;SDS011;5894;42.768;23.404;2022-12-10T00:38:46;28.97;;;14.83;;
11675;SDS011;5894;42.768;23.404;2022-12-10T00:41:14;25.70;;;13.17;;
11675;SDS011;5894;42.768;23.404;2022-12-10T00:43:42;24.87;;;11.77;;
11675;SDS011;5894;42.768;23.404;2022-12-10T00:46:09;21.10;;;11.03;;
11675;SDS011;5894;42.768;23.404;2022-12-10T00:48:40;23.90;;;12.73;;
11675;SDS011;5894;42.768;23.404;2022-12-10T00:51:08;20.63;;;11.03;;
11675;SDS011;5894;42.768;23.404;2022-12-10T00:53:38;22.63;;;12.10;;
11675;SDS011;5894;42.768;23.404;2022-12-10T00:56:06;30.47;;;15.60;;
11675;SDS011;5894;42.768;23.404;2022-12-10T00:58:34;28.20;;;14.47;;
11675;SDS011;5894;42.768;23.404;2022-12-10T01:01:11;28.57;;;14.40;;
11675;SDS011;5894;42.768;23.404;2022-12-10T01:03:42;25.37;;;14.17;;
11675;SDS011;5894;42.768;23.404;2022-12-10T01:06:12;27.40;;;12.93;;
11675;SDS011;5894;42.768;23.404;2022-12-10T01:08:40;25.03;;;11.80;;
11675;SDS011;5894;42.768;23.404;2022-12-10T01:11:08;20.07;;;10.97;;
11675;SDS011;5894;42.768;23.404;2022-12-10T01:13:35;16.47;;;9.00;;
11675;SDS011;5894;42.768;23.404;2022-12-10T01:16:03;17.90;;;9.93;;
11675;SDS011;5894;42.768;23.404;2022-12-10T01:18:32;25.13;;;11.43;;
11675;SDS011;5894;42.768;23.404;2022-12-10T01:21:01;18.77;;;10.57;;
11675;SDS011;5894;42.768;23.404;2022-12-10T01:23:31;14.27;;;8.90;;
11675;SDS011;5894;42.768;23.404;2022-12-10T01:26:00;22.93;;;11.43;;
11675;SDS011;5894;42.768;23.404;2022-12-10T01:28:28;25.77;;;12.70;;
11675;SDS011;5894;42.768;23.404;2022-12-10T01:30:59;20.20;;;12.23;;
11675;SDS011;5894;42.768;23.404;2022-12-10T01:33:26;27.87;;;12.57;;
11675;SDS011;5894;42.768;23.404;2022-12-10T01:35:53;21.13;;;12.27;;
11675;SDS011;5894;42.768;23.404;2022-12-10T01:38:21;22.43;;;11.83;;
11675;SDS011;5894;42.768;23.404;2022-12-10T01:40:48;34.67;;;12.90;;
11675;SDS011;5894;42.768;23.404;2022-12-10T01:43:15;21.23;;;10.30;;
11675;SDS011;5894;42.768;23.404;2022-12-10T01:45:42;18.80;;;9.60;;
11675;SDS011;5894;42.768;23.404;2022-12-10T01:48:09;15.07;;;9.90;;
11675;SDS011;5894;42.768;23.404;2022-12-10T01:50:36;16.03;;;10.10;;
11675;SDS011;5894;42.768;23.404;2022-12-10T01:53:04;18.17;;;11.07;;
11675;SDS011;5894;42.768;23.404;2022-12-10T01:55:37;18.43;;;11.37;;
11675;SDS011;5894;42.768;23.404;2022-12-10T01:58:08;20.73;;;12.37;;
11675;SDS011;5894;42.768;23.404;2022-12-10T02:00:37;23.63;;;13.33;;
11675;SDS011;5894;42.768;23.404;2022-12-10T02:03:13;21.67;;;12.33;;
11675;SDS011;5894;42.768;23.404;2022-12-10T02:05:48;20.23;;;11.67;;
11675;SDS011;5894;42.768;23.404;2022-12-10T02:08:24;23.00;;;13.40;;
11675;SDS011;5894;42.768;23.404;2022-12-10T02:10:58;23.60;;;13.53;;
11675;SDS011;5894;42.768;23.404;2022-12-10T02:13:32;21.27;;;12.80;;
11675;SDS011;5894;42.768;23.404;2022-12-10T02:16:04;25.67;;;13.40;;
11675;SDS011;5894;42.768;23.404;2022-12-10T02:18:38;24.13;;;13.30;;
11675;SDS011;5894;42.768;23.404;2022-12-10T02:21:10;24.13;;;14.27;;
11675;SDS011;5894;42.768;23.404;2022-12-10T02:23:43;25.27;;;14.40;;
11675;SDS011;5894;42.768;23.404;2022-12-10T02:26:17;22.67;;;12.60;;
11675;SDS011;5894;42.768;23.404;2022-12-10T02:28:51;28.10;;;14.30;;
11675;SDS011;5894;42.768;23.404;2022-12-10T02:31:23;22.03;;;14.07;;
11675;SDS011;5894;42.768;23.404;2022-12-10T02:33:56;21.13;;;12.37;;
11675;SDS011;5894;42.768;23.404;2022-12-10T02:36:26;32.27;;;17.20;;
11675;SDS011;5894;42.768;23.404;2022-12-10T02:38:58;21.90;;;13.43;;
11675;SDS011;5894;42.768;23.404;2022-12-10T02:41:30;24.47;;;13.43;;
11675;SDS011;5894;42.768;23.404;2022-12-10T02:44:01;26.13;;;14.77;;
11675;SDS011;5894;42.768;23.404;2022-12-10T02:46:33;23.67;;;13.40;;
11675;SDS011;5894;42.768;23.404;2022-12-10T02:49:05;32.53;;;14.60;;
11675;SDS011;5894;42.768;23.404;2022-12-10T02:51:35;23.03;;;13.50;;
11675;SDS011;5894;42.768;23.404;2022-12-10T02:54:03;23.07;;;12.90;;
11675;SDS011;5894;42.768;23.404;2022-12-10T02:56:35;22.30;;;11.83;;
11675;SDS011;5894;42.768;23.404;2022-12-10T02:59:10;34.37;;;15.93;;
11675;SDS011;5894;42.768;23.404;2022-12-10T03:01:49;27.83;;;15.47;;
11675;SDS011;5894;42.768;23.404;2022-12-10T03:04:25;26.73;;;13.87;;
11675;SDS011;5894;42.768;23.404;2022-12-10T03:07:00;25.47;;;14.30;;
11675;SDS011;5894;42.768;23.404;2022-12-10T03:09:32;24.00;;;12.03;;
11675;SDS011;5894;42.768;23.404;2022-12-10T03:12:06;24.03;;;13.17;;
11675;SDS011;5894;42.768;23.404;2022-12-10T03:14:39;20.13;;;11.07;;
11675;SDS011;5894;42.768;23.404;2022-12-10T03:17:08;11.50;;;8.00;;
11675;SDS011;5894;42.768;23.404;2022-12-10T03:19:36;14.67;;;8.40;;
11675;SDS011;5894;42.768;23.404;2022-12-10T03:22:06;13.17;;;6.87;;
11675;SDS011;5894;42.768;23.404;2022-12-10T03:24:36;17.47;;;9.37;;
11675;SDS011;5894;42.768;23.404;2022-12-10T03:27:03;11.63;;;8.00;;
11675;SDS011;5894;42.768;23.404;2022-12-10T03:29:33;12.13;;;9.63;;
11675;SDS011;5894;42.768;23.404;2022-12-10T03:32:04;11.57;;;8.60;;
11675;SDS011;5894;42.768;23.404;2022-12-10T03:34:33;11.83;;;6.70;;
11675;SDS011;5894;42.768;23.404;2022-12-10T03:37:01;11.33;;;6.70;;
11675;SDS011;5894;42.768;23.404;2022-12-10T03:39:28;19.93;;;14.37;;
11675;SDS011;5894;42.768;23.404;2022-12-10T03:41:55;130.17;;;62.67;;
11675;SDS011;5894;42.768;23.404;2022-12-10T03:44:28;50.80;;;23.03;;
11675;SDS011;5894;42.768;23.404;2022-12-10T03:46:56;54.77;;;35.77;;
11675;SDS011;5894;42.768;23.404;2022-12-10T03:49:24;19.63;;;13.27;;
11675;SDS011;5894;42.768;23.404;2022-12-10T03:51:52;12.80;;;7.23;;
11675;SDS011;5894;42.768;23.404;2022-12-10T03:54:19;10.60;;;6.43;;
11675;SDS011;5894;42.768;23.404;2022-12-10T03:56:46;13.10;;;6.13;;
11675;SDS011;5894;42.768;23.404;2022-12-10T03:59:19;11.40;;;6.90;;
11675;SDS011;5894;42.768;23.404;2022-12-10T04:01:46;15.27;;;6.87;;
11675;SDS011;5894;42.768;23.404;2022-12-10T04:04:13;16.27;;;8.17;;
11675;SDS011;5894;42.768;23.404;2022-12-10T04:06:41;13.27;;;7.37;;
11675;SDS011;5894;42.768;23.404;2022-12-10T04:09:10;8.90;;;6.23;;
11675;SDS011;5894;42.768;23.404;2022-12-10T04:11:37;26.63;;;16.43;;
11675;SDS011;5894;42.768;23.404;2022-12-10T04:14:04;22.80;;;15.37;;
11675;SDS011;5894;42.768;23.404;2022-12-10T04:16:49;25.90;;;21.00;;
11675;SDS011;5894;42.768;23.404;2022-12-10T04:19:16;15.87;;;10.80;;
11675;SDS011;5894;42.768;23.404;2022-12-10T04:21:44;13.87;;;8.37;;
11675;SDS011;5894;42.768;23.404;2022-12-10T04:24:31;12.60;;;8.27;;
11675;SDS011;5894;42.768;23.404;2022-12-10T04:27:18;11.30;;;5.97;;
11675;SDS011;5894;42.768;23.404;2022-12-10T04:29:48;10.97;;;6.87;;
11675;SDS011;5894;42.768;23.404;2022-12-10T04:32:16;15.13;;;9.77;;
11675;SDS011;5894;42.768;23.404;2022-12-10T04:34:43;21.60;;;16.20;;
11675;SDS011;5894;42.768;23.404;2022-12-10T04:37:11;20.73;;;15.20;;
11675;SDS011;5894;42.768;23.404;2022-12-10T04:39:39;16.50;;;9.90;;
11675;SDS011;5894;42.768;23.404;2022-12-10T04:42:06;17.10;;;7.50;;
11675;SDS011;5894;42.768;23.404;2022-12-10T04:44:34;15.60;;;9.97;;
11675;SDS011;5894;42.768;23.404;2022-12-10T04:47:01;15.33;;;8.50;;
11675;SDS011;5894;42.768;23.404;2022-12-10T04:49:29;14.20;;;7.63;;
11675;SDS011;5894;42.768;23.404;2022-12-10T04:51:57;13.70;;;8.90;;
11675;SDS011;5894;42.768;23.404;2022-12-10T04:54:24;17.43;;;7.57;;
11675;SDS011;5894;42.768;23.404;2022-12-10T04:56:54;16.87;;;7.77;;
11675;SDS011;5894;42.768;23.404;2022-12-10T04:59:21;17.03;;;9.80;;
11675;SDS011;5894;42.768;23.404;2022-12-10T05:01:48;22.43;;;11.00;;
11675;SDS011;5894;42.768;23.404;2022-12-10T05:04:16;20.03;;;11.77;;
11675;SDS011;5894;42.768;23.404;2022-12-10T05:06:43;18.13;;;10.57;;
11675;SDS011;5894;42.768;23.404;2022-12-10T05:09:12;21.33;;;10.43;;
11675;SDS011;5894;42.768;23.404;2022-12-10T05:11:39;17.37;;;10.93;;
11675;SDS011;5894;42.768;23.404;2022-12-10T05:14:09;20.53;;;10.63;;
11675;SDS011;5894;42.768;23.404;2022-12-10T05:16:36;25.95;;;16.60;;
11675;SDS011;5894;42.768;23.404;2022-12-10T05:19:03;23.83;;;18.10;;
11675;SDS011;5894;42.768;23.404;2022-12-10T05:21:30;16.03;;;10.33;;
11675;SDS011;5894;42.768;23.404;2022-12-10T05:24:11;16.80;;;9.10;;
11675;SDS011;5894;42.768;23.404;2022-12-10T05:26:38;14.03;;;8.90;;
11675;SDS011;5894;42.768;23.404;2022-12-10T05:29:05;17.00;;;10.75;;
11675;SDS011;5894;42.768;23.404;2022-12-10T05:31:33;16.27;;;8.80;;
11675;SDS011;5894;42.768;23.404;2022-12-10T05:34:00;15.87;;;8.27;;
11675;SDS011;5894;42.768;23.404;2022-12-10T05:36:27;14.00;;;8.70;;
11675;SDS011;5894;42.768;23.404;2022-12-10T05:38:56;11.50;;;8.47;;
11675;SDS011;5894;42.768;23.404;2022-12-10T05:41:26;14.47;;;8.37;;
11675;SDS011;5894;42.768;23.404;2022-12-10T05:43:54;14.50;;;8.90;;
11675;SDS011;5894;42.768;23.404;2022-12-10T05:46:23;17.05;;;10.52;;
11675;SDS011;5894;42.768;23.404;2022-12-10T05:48:53;21.98;;;13.27;;
11675;SDS011;5894;42.768;23.404;2022-12-10T05:51:21;35.90;;;17.27;;
11675;SDS011;5894;42.768;23.404;2022-12-10T05:53:51;28.23;;;16.15;;
11675;SDS011;5894;42.768;23.404;2022-12-10T05:56:20;20.52;;;13.45;;
11675;SDS011;5894;42.768;23.404;2022-12-10T05:58:49;16.47;;;11.47;;
11675;SDS011;5894;42.768;23.404;2022-12-10T06:01:17;22.85;;;12.95;;
11675;SDS011;5894;42.768;23.404;2022-12-10T06:03:45;20.00;;;12.38;;
11675;SDS011;5894;42.768;23.404;2022-12-10T06:06:14;19.58;;;12.10;;
11675;SDS011;5894;42.768;23.404;2022-12-10T06:08:47;21.77;;;15.70;;
11675;SDS011;5894;42.768;23.404;2022-12-10T06:11:15;26.98;;;19.40;;
11675;SDS011;5894;42.768;23.404;2022-12-10T06:13:42;19.23;;;15.73;;
11675;SDS011;5894;42.768;23.404;2022-12-10T06:16:10;35.47;;;24.90;;
11675;SDS011;5894;42.768;23.404;2022-12-10T06:18:39;23.02;;;15.27;;
11675;SDS011;5894;42.768;23.404;2022-12-10T06:21:07;23.87;;;13.57;;
11675;SDS011;5894;42.768;23.404;2022-12-10T06:23:37;16.70;;;12.10;;
11675;SDS011;5894;42.768;23.404;2022-12-10T06:26:05;25.80;;;14.70;;
11675;SDS011;5894;42.768;23.404;2022-12-10T06:28:33;19.07;;;11.53;;
11675;SDS011;5894;42.768;23.404;2022-12-10T06:31:01;29.23;;;17.83;;
11675;SDS011;5894;42.768;23.404;2022-12-10T06:33:28;24.23;;;19.70;;
11675;SDS011;5894;42.768;23.404;2022-12-10T06:35:55;26.67;;;18.53;;
11675;SDS011;5894;42.768;23.404;2022-12-10T06:38:21;19.73;;;11.10;;
11675;SDS011;5894;42.768;23.404;2022-12-10T06:40:50;16.60;;;11.75;;
11675;SDS011;5894;42.768;23.404;2022-12-10T06:43:17;24.83;;;16.15;;
11675;SDS011;5894;42.768;23.404;2022-12-10T06:45:44;28.10;;;17.23;;
11675;SDS011;5894;42.768;23.404;2022-12-10T06:48:11;25.58;;;16.98;;
11675;SDS011;5894;42.768;23.404;2022-12-10T06:50:38;42.85;;;25.85;;
11675;SDS011;5894;42.768;23.404;2022-12-10T06:53:06;44.83;;;30.27;;
11675;SDS011;5894;42.768;23.404;2022-12-10T06:55:33;39.45;;;28.10;;
11675;SDS011;5894;42.768;23.404;2022-12-10T06:58:03;23.50;;;18.40;;
11675;SDS011;5894;42.768;23.404;2022-12-10T07:00:30;20.77;;;17.60;;
11675;SDS011;5894;42.768;23.404;2022-12-10T07:02:57;33.03;;;15.13;;
11675;SDS011;5894;42.768;23.404;2022-12-10T07:05:24;25.73;;;13.80;;
11675;SDS011;5894;42.768;23.404;2022-12-10T07:07:50;33.20;;;20.63;;
11675;SDS011;5894;42.768;23.404;2022-12-10T07:10:17;32.45;;;21.50;;
11675;SDS011;5894;42.768;23.404;2022-12-10T07:12:46;37.17;;;23.70;;
11675;SDS011;5894;42.768;23.404;2022-12-10T07:15:14;57.13;;;39.20;;
11675;SDS011;5894;42.768;23.404;2022-12-10T07:17:42;38.47;;;27.77;;
11675;SDS011;5894;42.768;23.404;2022-12-10T07:20:09;61.45;;;33.80;;
11675;SDS011;5894;42.768;23.404;2022-12-10T07:22:37;35.72;;;22.85;;
11675;SDS011;5894;42.768;23.404;2022-12-10T07:25:04;32.65;;;23.45;;
11675;SDS011;5894;42.768;23.404;2022-12-10T07:27:31;31.98;;;20.73;;
11675;SDS011;5894;42.768;23.404;2022-12-10T07:29:58;48.65;;;30.55;;
11675;SDS011;5894;42.768;23.404;2022-12-10T07:32:27;27.50;;;18.50;;
11675;SDS011;5894;42.768;23.404;2022-12-10T07:34:54;23.13;;;14.90;;
11675;SDS011;5894;42.768;23.404;2022-12-10T07:37:21;24.00;;;14.85;;
11675;SDS011;5894;42.768;23.404;2022-12-10T07:39:48;32.20;;;21.52;;
11675;SDS011;5894;42.768;23.404;2022-12-10T07:42:15;35.13;;;21.20;;
11675;SDS011;5894;42.768;23.404;2022-12-10T07:44:42;34.47;;;22.45;;
11675;SDS011;5894;42.768;23.404;2022-12-10T07:47:08;21.52;;;14.15;;
11675;SDS011;5894;42.768;23.404;2022-12-10T07:49:37;17.30;;;11.45;;
11675;SDS011;5894;42.768;23.404;2022-12-10T07:52:03;17.52;;;10.43;;
11675;SDS011;5894;42.768;23.404;2022-12-10T07:54:30;15.93;;;10.98;;
11675;SDS011;5894;42.768;23.404;2022-12-10T07:56:57;16.90;;;11.20;;
11675;SDS011;5894;42.768;23.404;2022-12-10T07:59:24;16.13;;;10.63;;
11675;SDS011;5894;42.768;23.404;2022-12-10T08:01:51;14.65;;;10.90;;
11675;SDS011;5894;42.768;23.404;2022-12-10T08:04:18;18.05;;;11.55;;
11675;SDS011;5894;42.768;23.404;2022-12-10T08:06:46;24.02;;;13.10;;
11675;SDS011;5894;42.768;23.404;2022-12-10T08:09:13;19.60;;;13.18;;
11675;SDS011;5894;42.768;23.404;2022-12-10T08:11:40;20.67;;;11.90;;
11675;SDS011;5894;42.768;23.404;2022-12-10T08:14:06;22.85;;;13.65;;
11675;SDS011;5894;42.768;23.404;2022-12-10T08:16:33;18.38;;;10.80;;
11675;SDS011;5894;42.768;23.404;2022-12-10T08:19:00;16.45;;;9.82;;
11675;SDS011;5894;42.768;23.404;2022-12-10T08:21:28;14.40;;;9.70;;
11675;SDS011;5894;42.768;23.404;2022-12-10T08:23:57;19.05;;;10.63;;
11675;SDS011;5894;42.768;23.404;2022-12-10T08:26:26;16.60;;;9.80;;
11675;SDS011;5894;42.768;23.404;2022-12-10T08:28:54;14.50;;;8.50;;
11675;SDS011;5894;42.768;23.404;2022-12-10T08:31:22;10.82;;;7.45;;
11675;SDS011;5894;42.768;23.404;2022-12-10T08:33:51;12.90;;;7.10;;
11675;SDS011;5894;42.768;23.404;2022-12-10T08:36:18;12.35;;;7.32;;
11675;SDS011;5894;42.768;23.404;2022-12-10T08:38:45;12.82;;;8.13;;
11675;SDS011;5894;42.768;23.404;2022-12-10T08:41:15;15.20;;;8.55;;
11675;SDS011;5894;42.768;23.404;2022-12-10T08:43:43;11.70;;;7.15;;
11675;SDS011;5894;42.768;23.404;2022-12-10T08:46:11;12.00;;;7.13;;
11675;SDS011;5894;42.768;23.404;2022-12-10T08:48:39;12.68;;;7.50;;
11675;SDS011;5894;42.768;23.404;2022-12-10T08:51:07;12.77;;;7.55;;
11675;SDS011;5894;42.768;23.404;2022-12-10T08:53:34;13.07;;;7.70;;
11675;SDS011;5894;42.768;23.404;2022-12-10T08:56:02;12.23;;;8.02;;
11675;SDS011;5894;42.768;23.404;2022-12-10T08:58:30;11.63;;;7.40;;
11675;SDS011;5894;42.768;23.404;2022-12-10T09:00:57;13.43;;;8.77;;
11675;SDS011;5894;42.768;23.404;2022-12-10T09:03:24;13.90;;;9.13;;
11675;SDS011;5894;42.768;23.404;2022-12-10T09:05:51;11.18;;;7.22;;
11675;SDS011;5894;42.768;23.404;2022-12-10T09:08:17;13.77;;;8.30;;
11675;SDS011;5894;42.768;23.404;2022-12-10T09:10:44;11.18;;;7.38;;
11675;SDS011;5894;42.768;23.404;2022-12-10T09:13:13;12.75;;;9.18;;
11675;SDS011;5894;42.768;23.404;2022-12-10T09:15:41;31.77;;;16.23;;
11675;SDS011;5894;42.768;23.404;2022-12-10T09:18:15;23.48;;;12.88;;
11675;SDS011;5894;42.768;23.404;2022-12-10T09:20:42;23.38;;;12.68;;
11675;SDS011;5894;42.768;23.404;2022-12-10T09:23:09;22.00;;;12.52;;
11675;SDS011;5894;42.768;23.404;2022-12-10T09:25:38;30.02;;;13.35;;
11675;SDS011;5894;42.768;23.404;2022-12-10T09:28:05;25.80;;;12.98;;
11675;SDS011;5894;42.768;23.404;2022-12-10T09:30:32;23.55;;;12.52;;
11675;SDS011;5894;42.768;23.404;2022-12-10T09:33:01;22.98;;;11.90;;
11675;SDS011;5894;42.768;23.404;2022-12-10T09:35:27;12.15;;;7.75;;
11675;SDS011;5894;42.768;23.404;2022-12-10T09:37:54;16.40;;;8.05;;
11675;SDS011;5894;42.768;23.404;2022-12-10T09:40:22;13.52;;;8.00;;
11675;SDS011;5894;42.768;23.404;2022-12-10T09:42:59;9.10;;;6.43;;
11675;SDS011;5894;42.768;23.404;2022-12-10T09:45:32;10.98;;;6.75;;
11675;SDS011;5894;42.768;23.404;2022-12-10T09:48:11;11.00;;;5.75;;
11675;SDS011;5894;42.768;23.404;2022-12-10T09:50:48;8.50;;;5.93;;
11675;SDS011;5894;42.768;23.404;2022-12-10T09:53:21;10.13;;;7.00;;
11675;SDS011;5894;42.768;23.404;2022-12-10T09:55:50;14.38;;;9.32;;
11675;SDS011;5894;42.768;23.404;2022-12-10T09:58:20;20.13;;;10.07;;
11675;SDS011;5894;42.768;23.404;2022-12-10T10:00:50;33.72;;;13.57;;
11675;SDS011;5894;42.768;23.404;2022-12-10T10:03:21;39.22;;;17.33;;
11675;SDS011;5894;42.768;23.404;2022-12-10T10:05:49;47.63;;;22.38;;
11675;SDS011;5894;42.768;23.404;2022-12-10T10:08:21;27.55;;;14.57;;
11675;SDS011;5894;42.768;23.404;2022-12-10T10:10:53;20.02;;;10.70;;
11675;SDS011;5894;42.768;23.404;2022-12-10T10:13:23;21.77;;;11.63;;
11675;SDS011;5894;42.768;23.404;2022-12-10T10:15:56;18.23;;;10.43;;
11675;SDS011;5894;42.768;23.404;2022-12-10T10:18:34;15.13;;;9.45;;
11675;SDS011;5894;42.768;23.404;2022-12-10T10:21:06;17.40;;;10.18;;
11675;SDS011;5894;42.768;23.404;2022-12-10T10:23:43;14.32;;;9.15;;
11675;SDS011;5894;42.768;23.404;2022-12-10T10:26:11;15.05;;;9.63;;
11675;SDS011;5894;42.768;23.404;2022-12-10T10:28:38;35.15;;;18.85;;
11675;SDS011;5894;42.768;23.404;2022-12-10T10:33:48;22.92;;;14.40;;
11675;SDS011;5894;42.768;23.404;2022-12-10T10:36:25;18.40;;;10.55;;
11675;SDS011;5894;42.768;23.404;2022-12-10T10:38:53;14.07;;;9.40;;
11675;SDS011;5894;42.768;23.404;2022-12-10T10:41:21;13.57;;;8.90;;
11675;SDS011;5894;42.768;23.404;2022-12-10T10:43:51;17.48;;;9.10;;
11675;SDS011;5894;42.768;23.404;2022-12-10T10:46:26;13.00;;;8.40;;
11675;SDS011;5894;42.768;23.404;2022-12-10T10:48:54;14.57;;;8.18;;
11675;SDS011;5894;42.768;23.404;2022-12-10T10:51:41;14.20;;;8.50;;
11675;SDS011;5894;42.768;23.404;2022-12-10T10:54:09;15.50;;;9.85;;
11675;SDS011;5894;42.768;23.404;2022-12-10T10:56:38;15.45;;;10.57;;
11675;SDS011;5894;42.768;23.404;2022-12-10T10:59:07;19.10;;;11.55;;
11675;SDS011;5894;42.768;23.404;2022-12-10T11:01:56;16.85;;;11.07;;
11675;SDS011;5894;42.768;23.404;2022-12-10T11:04:29;13.85;;;9.48;;
11675;SDS011;5894;42.768;23.404;2022-12-10T11:06:59;13.90;;;9.43;;
11675;SDS011;5894;42.768;23.404;2022-12-10T11:09:28;13.07;;;9.85;;
11675;SDS011;5894;42.768;23.404;2022-12-10T11:11:57;12.48;;;9.45;;
11675;SDS011;5894;42.768;23.404;2022-12-10T11:14:26;15.65;;;9.38;;
11675;SDS011;5894;42.768;23.404;2022-12-10T11:17:00;13.48;;;8.02;;
11675;SDS011;5894;42.768;23.404;2022-12-10T11:19:30;13.45;;;7.43;;
11675;SDS011;5894;42.768;23.404;2022-12-10T11:22:07;12.35;;;7.60;;
11675;SDS011;5894;42.768;23.404;2022-12-10T11:24:42;9.80;;;6.50;;
11675;SDS011;5894;42.768;23.404;2022-12-10T11:27:09;8.43;;;5.68;;
11675;SDS011;5894;42.768;23.404;2022-12-10T11:29:45;7.97;;;6.03;;
11675;SDS011;5894;42.768;23.404;2022-12-10T11:32:26;13.07;;;7.10;;
11675;SDS011;5894;42.768;23.404;2022-12-10T11:35:12;12.50;;;7.00;;
11675;SDS011;5894;42.768;23.404;2022-12-10T11:37:44;16.13;;;10.90;;
11675;SDS011;5894;42.768;23.404;2022-12-10T11:40:23;21.92;;;14.48;;
11675;SDS011;5894;42.768;23.404;2022-12-10T11:43:01;15.88;;;9.93;;
11675;SDS011;5894;42.768;23.404;2022-12-10T11:45:44;13.25;;;8.25;;
11675;SDS011;5894;42.768;23.404;2022-12-10T11:48:27;14.48;;;9.40;;
11675;SDS011;5894;42.768;23.404;2022-12-10T11:51:08;17.95;;;8.80;;
11675;SDS011;5894;42.768;23.404;2022-12-10T11:53:47;10.52;;;7.10;;
11675;SDS011;5894;42.768;23.404;2022-12-10T11:56:28;11.68;;;7.07;;
11675;SDS011;5894;42.768;23.404;2022-12-10T11:59:05;9.65;;;5.60;;
11675;SDS011;5894;42.768;23.404;2022-12-10T12:01:51;11.85;;;6.78;;
11675;SDS011;5894;42.768;23.404;2022-12-10T12:04:46;10.98;;;8.38;;
11675;SDS011;5894;42.768;23.404;2022-12-10T12:07:33;13.00;;;8.05;;
11675;SDS011;5894;42.768;23.404;2022-12-10T12:10:22;8.95;;;6.72;;
11675;SDS011;5894;42.768;23.404;2022-12-10T12:13:09;11.40;;;7.97;;
11675;SDS011;5894;42.768;23.404;2022-12-10T12:15:41;10.50;;;6.70;;
11675;SDS011;5894;42.768;23.404;2022-12-10T12:18:13;13.57;;;6.53;;
11675;SDS011;5894;42.768;23.404;2022-12-10T12:20:47;8.80;;;6.40;;
11675;SDS011;5894;42.768;23.404;2022-12-10T12:23:22;11.25;;;6.95;;
11675;SDS011;5894;42.768;23.404;2022-12-10T12:25:54;16.52;;;9.00;;
11675;SDS011;5894;42.768;23.404;2022-12-10T12:28:25;15.73;;;12.10;;
11675;SDS011;5894;42.768;23.404;2022-12-10T12:30:58;17.98;;;13.35;;
11675;SDS011;5894;42.768;23.404;2022-12-10T12:33:32;14.57;;;11.93;;
11675;SDS011;5894;42.768;23.404;2022-12-10T12:36:06;11.18;;;8.82;;
11675;SDS011;5894;42.768;23.404;2022-12-10T12:38:39;11.73;;;7.50;;
11675;SDS011;5894;42.768;23.404;2022-12-10T12:41:13;23.80;;;15.23;;
11675;SDS011;5894;42.768;23.404;2022-12-10T12:43:44;11.05;;;6.30;;
11675;SDS011;5894;42.768;23.404;2022-12-10T12:46:19;16.40;;;10.20;;
11675;SDS011;5894;42.768;23.404;2022-12-10T12:49:00;12.57;;;7.95;;
11675;SDS011;5894;42.768;23.404;2022-12-10T12:51:34;13.02;;;6.88;;
11675;SDS011;5894;42.768;23.404;2022-12-10T12:54:06;13.45;;;8.73;;
11675;SDS011;5894;42.768;23.404;2022-12-10T12:56:39;21.42;;;11.70;;
11675;SDS011;5894;42.768;23.404;2022-12-10T12:59:22;13.50;;;7.55;;
11675;SDS011;5894;42.768;23.404;2022-12-10T13:02:02;14.15;;;7.80;;
11675;SDS011;5894;42.768;23.404;2022-12-10T13:04:45;12.57;;;8.93;;
11675;SDS011;5894;42.768;23.404;2022-12-10T13:07:32;14.45;;;9.48;;
11675;SDS011;5894;42.768;23.404;2022-12-10T13:10:09;13.40;;;6.93;;
11675;SDS011;5894;42.768;23.404;2022-12-10T13:12:48;10.27;;;6.60;;
11675;SDS011;5894;42.768;23.404;2022-12-10T13:15:18;14.48;;;9.52;;
11675;SDS011;5894;42.768;23.404;2022-12-10T13:18:16;39.60;;;24.60;;
11675;SDS011;5894;42.768;23.404;2022-12-10T13:20:48;35.50;;;22.08;;
11675;SDS011;5894;42.768;23.404;2022-12-10T13:23:31;43.10;;;25.92;;
11675;SDS011;5894;42.768;23.404;2022-12-10T13:26:01;37.55;;;23.63;;
11675;SDS011;5894;42.768;23.404;2022-12-10T13:28:30;31.70;;;18.92;;
11675;SDS011;5894;42.768;23.404;2022-12-10T13:31:22;28.67;;;17.77;;
11675;SDS011;5894;42.768;23.404;2022-12-10T13:34:06;24.75;;;15.52;;
11675;SDS011;5894;42.768;23.404;2022-12-10T13:40:15;29.73;;;20.00;;
11675;SDS011;5894;42.768;23.404;2022-12-10T13:43:25;12.85;;;9.32;;
11675;SDS011;5894;42.768;23.404;2022-12-10T13:46:21;15.93;;;10.55;;
11675;SDS011;5894;42.768;23.404;2022-12-10T13:48:50;17.95;;;10.93;;
11675;SDS011;5894;42.768;23.404;2022-12-10T13:51:31;16.70;;;10.93;;
11675;SDS011;5894;42.768;23.404;2022-12-10T13:54:12;16.33;;;10.43;;
11675;SDS011;5894;42.768;23.404;2022-12-10T13:57:04;9.20;;;5.30;;
11675;SDS011;5894;42.768;23.404;2022-12-10T13:59:47;8.55;;;5.15;;
11675;SDS011;5894;42.768;23.404;2022-12-10T14:02:25;9.98;;;4.70;;
11675;SDS011;5894;42.768;23.404;2022-12-10T14:05:09;8.15;;;4.68;;
11675;SDS011;5894;42.768;23.404;2022-12-10T14:07:59;13.02;;;7.80;;
11675;SDS011;5894;42.768;23.404;2022-12-10T14:10:30;18.10;;;9.70;;
11675;SDS011;5894;42.768;23.404;2022-12-10T14:12:59;15.00;;;7.82;;
11675;SDS011;5894;42.768;23.404;2022-12-10T14:15:30;11.32;;;7.97;;
11675;SDS011;5894;42.768;23.404;2022-12-10T14:18:00;12.50;;;8.90;;
11675;SDS011;5894;42.768;23.404;2022-12-10T14:20:30;18.58;;;11.20;;
11675;SDS011;5894;42.768;23.404;2022-12-10T14:23:02;15.80;;;10.88;;
11675;SDS011;5894;42.768;23.404;2022-12-10T14:25:47;12.20;;;9.48;;
11675;SDS011;5894;42.768;23.404;2022-12-10T14:28:16;11.07;;;6.30;;
11675;SDS011;5894;42.768;23.404;2022-12-10T14:30:46;9.73;;;6.93;;
11675;SDS011;5894;42.768;23.404;2022-12-10T14:33:15;13.40;;;8.75;;
11675;SDS011;5894;42.768;23.404;2022-12-10T14:35:46;12.20;;;6.53;;
11675;SDS011;5894;42.768;23.404;2022-12-10T14:38:16;11.10;;;7.68;;
11675;SDS011;5894;42.768;23.404;2022-12-10T14:40:45;17.15;;;8.80;;
11675;SDS011;5894;42.768;23.404;2022-12-10T14:43:13;16.08;;;9.18;;
11675;SDS011;5894;42.768;23.404;2022-12-10T14:45:44;18.75;;;11.65;;
11675;SDS011;5894;42.768;23.404;2022-12-10T14:48:16;17.98;;;10.35;;
11675;SDS011;5894;42.768;23.404;2022-12-10T14:50:44;12.98;;;8.07;;
11675;SDS011;5894;42.768;23.404;2022-12-10T14:53:13;18.35;;;9.63;;
11675;SDS011;5894;42.768;23.404;2022-12-10T14:55:42;27.35;;;13.10;;
11675;SDS011;5894;42.768;23.404;2022-12-10T14:58:13;17.55;;;8.85;;